createdAt,value
2018-12-21T00:00:18.864Z,73.92
2018-12-21T00:02:29.716Z,74.71
2018-12-21T00:04:40.596Z,74.60
2018-12-21T00:06:51.436Z,74.27
2018-12-21T00:09:04.059Z,74.68
2018-12-21T00:11:14.893Z,74.34
2018-12-21T00:13:25.736Z,74.32
2018-12-21T00:15:36.561Z,74.42
2018-12-21T00:17:47.405Z,73.98
2018-12-21T00:19:58.252Z,73.82
2018-12-21T00:22:09.090Z,73.82
2018-12-21T00:24:19.938Z,74.31
2018-12-21T00:26:30.793Z,74.20
2018-12-21T00:28:41.616Z,74.42
2018-12-21T00:30:58.813Z,74.00
2018-12-21T00:33:15.789Z,74.54
2018-12-21T00:35:32.720Z,73.92
2018-12-21T00:37:49.760Z,74.62
2018-12-21T00:40:06.576Z,74.02
2018-12-21T00:42:20.455Z,73.75
2018-12-21T00:44:32.551Z,73.74
2018-12-21T00:46:43.390Z,73.61
2018-12-21T00:48:54.224Z,73.97
2018-12-21T00:51:05.177Z,74.46
2018-12-21T00:53:16.034Z,73.81
2018-12-21T00:55:26.877Z,74.27
2018-12-21T00:57:37.832Z,73.76
2018-12-21T00:59:49.208Z,74.17
2018-12-21T01:02:00.055Z,73.84
2018-12-21T01:04:10.893Z,73.65
2018-12-21T01:06:21.757Z,74.26
2018-12-21T01:08:32.577Z,74.36
2018-12-21T01:10:43.565Z,73.74
2018-12-21T01:12:54.376Z,74.50
2018-12-21T01:15:05.358Z,73.56
2018-12-21T01:17:16.196Z,73.50
2018-12-21T01:19:27.040Z,73.80
2018-12-21T01:21:38.867Z,73.99
2018-12-21T01:23:50.144Z,73.88
2018-12-21T01:26:01.020Z,73.33
2018-12-21T01:28:11.860Z,73.16
2018-12-21T01:30:22.733Z,73.92
2018-12-21T01:32:33.553Z,74.08
2018-12-21T01:34:44.379Z,73.23
2018-12-21T01:36:55.237Z,73.30
2018-12-21T01:39:06.101Z,73.64
2018-12-21T01:41:16.943Z,73.04
2018-12-21T01:43:27.785Z,72.80
2018-12-21T01:45:38.653Z,72.98
2018-12-21T01:47:49.469Z,72.50
2018-12-21T01:50:00.304Z,72.96
2018-12-21T01:52:11.142Z,73.22
2018-12-21T01:54:22.014Z,72.46
2018-12-21T01:56:32.848Z,72.25
2018-12-21T01:58:43.725Z,72.48
2018-12-21T02:00:54.572Z,72.30
2018-12-21T02:03:05.402Z,72.20
2018-12-21T02:05:16.283Z,71.90
2018-12-21T02:07:27.133Z,72.31
2018-12-21T02:09:37.989Z,71.63
2018-12-21T02:11:48.834Z,72.44
2018-12-21T02:13:59.671Z,71.62
2018-12-21T02:16:10.501Z,72.10
2018-12-21T02:18:21.359Z,71.80
2018-12-21T02:20:32.177Z,71.73
2018-12-21T02:22:43.024Z,72.51
2018-12-21T02:24:53.854Z,71.96
2018-12-21T02:27:04.721Z,72.36
2018-12-21T02:29:15.665Z,72.62
2018-12-21T02:31:26.483Z,71.76
2018-12-21T02:33:37.321Z,71.99
2018-12-21T02:35:48.166Z,72.54
2018-12-21T02:37:59.009Z,71.80
2018-12-21T02:40:09.851Z,71.62
2018-12-21T02:42:20.680Z,72.16
2018-12-21T02:44:31.540Z,71.92
2018-12-21T02:46:42.391Z,72.15
2018-12-21T02:48:53.235Z,71.47
2018-12-21T02:51:04.065Z,72.22
2018-12-21T02:53:14.973Z,72.25
2018-12-21T02:55:25.822Z,71.70
2018-12-21T02:57:36.803Z,71.71
2018-12-21T02:59:47.664Z,71.79
2018-12-21T03:01:58.506Z,71.18
2018-12-21T03:04:09.344Z,71.38
2018-12-21T03:06:20.260Z,71.87
2018-12-21T03:08:31.105Z,71.32
2018-12-21T03:10:41.908Z,71.12
2018-12-21T03:12:53.254Z,71.51
2018-12-21T03:15:04.623Z,71.07
2018-12-21T03:17:15.512Z,70.86
2018-12-21T03:19:26.369Z,71.70
2018-12-21T03:21:37.309Z,71.96
2018-12-21T03:23:48.139Z,71.10
2018-12-21T03:25:58.984Z,71.48
2018-12-21T03:28:09.808Z,71.00
2018-12-21T03:30:20.669Z,71.14
2018-12-21T03:32:31.642Z,71.23
2018-12-21T03:34:42.613Z,71.81
2018-12-21T03:36:53.548Z,71.87
2018-12-21T03:39:06.400Z,71.34
2018-12-21T03:41:17.245Z,71.11
2018-12-21T03:43:28.063Z,71.45
2018-12-21T03:45:38.931Z,70.82
2018-12-21T03:47:49.766Z,71.00
2018-12-21T03:50:00.715Z,70.89
2018-12-21T03:52:11.545Z,71.79
2018-12-21T03:54:22.481Z,71.05
2018-12-21T03:56:33.313Z,70.84
2018-12-21T03:58:44.116Z,71.03
2018-12-21T04:00:54.977Z,70.82
2018-12-21T04:03:05.912Z,71.56
2018-12-21T04:05:16.870Z,71.14
2018-12-21T04:07:27.727Z,72.15
2018-12-21T04:09:38.557Z,71.45
2018-12-21T04:11:49.411Z,71.20
2018-12-21T04:14:00.344Z,71.97
2018-12-21T04:16:11.200Z,71.93
2018-12-21T04:18:22.140Z,71.35
2018-12-21T04:20:32.981Z,71.00
2018-12-21T04:22:43.805Z,71.33
2018-12-21T04:24:54.769Z,71.39
2018-12-21T04:27:05.605Z,71.25
2018-12-21T04:29:16.425Z,71.87
2018-12-21T04:31:27.273Z,71.16
2018-12-21T04:33:38.977Z,71.28
2018-12-21T04:35:49.926Z,71.86
2018-12-21T04:38:00.773Z,71.62
2018-12-21T04:40:11.589Z,71.67
2018-12-21T04:42:22.429Z,71.14
2018-12-21T04:44:33.280Z,71.08
2018-12-21T04:46:44.204Z,71.26
2018-12-21T04:48:55.065Z,71.67
2018-12-21T04:51:05.890Z,71.15
2018-12-21T04:53:16.738Z,70.97
2018-12-21T04:55:27.653Z,71.08
2018-12-21T04:57:38.480Z,71.12
2018-12-21T04:59:49.337Z,71.40
2018-12-21T05:02:00.184Z,71.73
2018-12-21T05:04:19.530Z,71.01
2018-12-21T05:06:23.877Z,71.44
2018-12-21T05:08:34.740Z,70.52
2018-12-21T05:10:45.698Z,71.26
2018-12-21T05:12:56.506Z,70.46
2018-12-21T05:15:07.459Z,71.10
2018-12-21T05:17:18.376Z,71.42
2018-12-21T05:19:29.215Z,70.85
2018-12-21T05:21:40.034Z,71.00
2018-12-21T05:23:51.179Z,70.96
2018-12-21T05:26:02.150Z,70.77
2018-12-21T05:28:12.971Z,70.08
2018-12-21T05:30:24.105Z,69.80
2018-12-21T05:32:34.982Z,69.68
2018-12-21T05:34:45.840Z,70.02
2018-12-21T05:36:56.756Z,70.09
2018-12-21T05:39:07.636Z,69.29
2018-12-21T05:41:18.479Z,69.12
2018-12-21T05:43:29.329Z,69.09
2018-12-21T05:45:40.177Z,69.46
2018-12-21T05:47:51.008Z,69.10
2018-12-21T05:50:01.931Z,69.36
2018-12-21T05:52:12.777Z,69.00
2018-12-21T05:54:23.605Z,68.11
2018-12-21T05:56:34.454Z,68.61
2018-12-21T05:58:45.384Z,68.06
2018-12-21T06:00:56.241Z,68.85
2018-12-21T06:03:07.072Z,68.59
2018-12-21T06:05:17.893Z,68.52
2018-12-21T06:07:28.781Z,68.03
2018-12-21T06:09:39.610Z,68.79
2018-12-21T06:11:50.475Z,68.34
2018-12-21T06:14:01.335Z,67.68
2018-12-21T06:16:12.169Z,67.21
2018-12-21T06:18:23.002Z,67.73
2018-12-21T06:20:33.865Z,67.00
2018-12-21T06:22:44.713Z,67.09
2018-12-21T06:24:55.544Z,67.35
2018-12-21T06:27:06.372Z,67.10
2018-12-21T06:29:17.228Z,66.98
2018-12-21T06:31:28.088Z,67.83
2018-12-21T06:33:38.901Z,66.43
2018-12-21T06:35:49.750Z,66.81
2018-12-21T06:38:00.628Z,66.38
2018-12-21T06:40:11.477Z,67.20
2018-12-21T06:42:22.316Z,66.58
2018-12-21T06:44:33.424Z,66.87
2018-12-21T06:46:44.297Z,66.95
2018-12-21T06:48:55.136Z,67.30
2018-12-21T06:51:05.970Z,67.60
2018-12-21T06:53:18.134Z,67.47
2018-12-21T06:55:29.452Z,69.01
2018-12-21T06:57:40.349Z,69.10
2018-12-21T06:59:51.249Z,68.92
2018-12-21T07:02:02.147Z,69.57
2018-12-21T07:04:12.964Z,70.30
2018-12-21T07:06:23.792Z,71.19
2018-12-21T07:08:34.645Z,71.55
2018-12-21T07:10:45.464Z,71.09
2018-12-21T07:12:56.339Z,71.73
2018-12-21T07:15:07.400Z,71.29
2018-12-21T07:17:18.229Z,72.20
2018-12-21T07:19:29.092Z,72.08
2018-12-21T07:21:39.956Z,72.37
2018-12-21T07:23:50.817Z,72.13
2018-12-21T07:26:01.673Z,72.10
2018-12-21T07:28:12.553Z,73.69
2018-12-21T07:30:23.410Z,73.20
2018-12-21T07:32:34.237Z,73.08
2018-12-21T07:34:45.121Z,73.74
2018-12-21T07:36:55.947Z,73.03
2018-12-21T07:39:07.034Z,73.00
2018-12-21T07:41:17.873Z,73.70
2018-12-21T07:43:28.755Z,73.71
2018-12-21T07:45:39.604Z,73.84
2018-12-21T07:47:50.446Z,73.54
2018-12-21T07:50:01.300Z,73.98
2018-12-21T07:52:12.149Z,73.43
2018-12-21T07:54:23.020Z,73.59
2018-12-21T07:56:33.860Z,74.66
2018-12-21T07:58:44.670Z,75.20
2018-12-21T08:00:55.638Z,75.74
2018-12-21T08:03:06.466Z,74.50
2018-12-21T08:05:17.370Z,75.82
2018-12-21T08:07:28.291Z,75.68
2018-12-21T08:09:39.184Z,76.87
2018-12-21T08:11:50.137Z,76.49
2018-12-21T08:14:00.991Z,77.25
2018-12-21T08:16:11.843Z,77.23
2018-12-21T08:18:22.673Z,76.63
2018-12-21T08:20:33.568Z,76.89
2018-12-21T08:22:44.404Z,77.47
2018-12-21T08:24:55.221Z,76.92
2018-12-21T08:27:06.068Z,76.71
2018-12-21T08:29:16.909Z,76.65
2018-12-21T08:31:27.766Z,76.88
2018-12-21T08:33:38.748Z,75.94
2018-12-21T08:35:49.610Z,76.02
2018-12-21T08:38:00.468Z,76.29
2018-12-21T08:40:11.306Z,76.50
2018-12-21T08:42:22.204Z,75.78
2018-12-21T08:44:33.061Z,76.78
2018-12-21T08:46:43.912Z,76.12
2018-12-21T08:48:54.767Z,75.53
2018-12-21T08:51:05.636Z,76.11
2018-12-21T08:53:16.473Z,76.27
2018-12-21T08:55:27.307Z,76.03
2018-12-21T08:57:38.165Z,75.56
2018-12-21T08:59:48.997Z,76.13
2018-12-21T09:01:59.832Z,76.59
2018-12-21T09:04:10.652Z,75.88
2018-12-21T09:06:21.545Z,75.82
2018-12-21T09:08:32.533Z,75.99
2018-12-21T09:10:43.383Z,76.06
2018-12-21T09:12:54.245Z,75.26
2018-12-21T09:15:08.478Z,75.42
2018-12-21T09:17:19.350Z,76.13
2018-12-21T09:19:30.181Z,75.52
2018-12-21T09:21:41.053Z,75.55
2018-12-21T09:23:51.910Z,75.77
2018-12-21T09:26:02.744Z,76.26
2018-12-21T09:28:13.576Z,75.42
2018-12-21T09:30:24.425Z,75.30
2018-12-21T09:32:35.254Z,75.59
2018-12-21T09:34:46.094Z,75.52
2018-12-21T09:36:56.934Z,75.45
2018-12-21T09:39:07.814Z,75.05
2018-12-21T09:41:18.652Z,75.99
2018-12-21T09:43:29.485Z,75.57
2018-12-21T09:45:40.360Z,75.65
2018-12-21T09:47:51.199Z,75.55
2018-12-21T09:50:02.338Z,75.24
2018-12-21T09:52:13.200Z,75.48
2018-12-21T09:54:24.073Z,75.34
2018-12-21T09:56:34.897Z,75.91
2018-12-21T09:58:45.758Z,75.75
2018-12-21T10:00:56.617Z,75.40
2018-12-21T10:03:07.460Z,75.04
2018-12-21T10:05:18.332Z,75.41
2018-12-21T10:07:29.160Z,75.93
2018-12-21T10:09:40.029Z,75.29
2018-12-21T10:11:50.893Z,75.26
2018-12-21T10:14:01.837Z,75.61
2018-12-21T10:16:12.683Z,75.64
2018-12-21T10:18:23.569Z,75.29
2018-12-21T10:20:34.414Z,75.67
2018-12-21T10:22:45.360Z,74.74
2018-12-21T10:24:56.225Z,74.96
2018-12-21T10:27:07.050Z,74.48
2018-12-21T10:29:17.881Z,75.59
2018-12-21T10:31:28.739Z,74.87
2018-12-21T10:33:39.700Z,75.50
2018-12-21T10:35:50.559Z,74.99
2018-12-21T10:38:01.389Z,75.00
2018-12-21T10:40:12.256Z,74.63
2018-12-21T10:42:23.107Z,74.64
2018-12-21T10:44:34.173Z,74.89
2018-12-21T10:46:45.049Z,74.94
2018-12-21T10:48:55.964Z,75.20
2018-12-21T10:51:06.853Z,75.08
2018-12-21T10:53:17.711Z,74.72
2018-12-21T10:55:28.539Z,74.70
2018-12-21T10:57:39.406Z,74.88
2018-12-21T10:59:50.224Z,74.67
2018-12-21T11:02:01.057Z,75.43
2018-12-21T11:04:13.524Z,75.51
2018-12-21T11:06:24.461Z,75.57
2018-12-21T11:08:35.379Z,76.33
2018-12-21T11:10:46.234Z,76.79
2018-12-21T11:12:57.105Z,76.63
2018-12-21T11:15:08.049Z,77.68
2018-12-21T11:17:18.914Z,77.26
2018-12-21T11:19:29.855Z,78.36
2018-12-21T11:21:40.712Z,79.12
2018-12-21T11:23:51.642Z,79.73
2018-12-21T11:26:02.602Z,78.92
2018-12-21T11:28:13.458Z,78.72
2018-12-21T11:30:24.346Z,79.13
2018-12-21T11:32:35.250Z,79.29
2018-12-21T11:34:46.179Z,79.73
2018-12-21T11:36:57.131Z,78.73
2018-12-21T11:39:07.995Z,78.28
2018-12-21T11:41:18.845Z,77.72
2018-12-21T11:43:29.719Z,77.79
2018-12-21T11:45:40.584Z,78.47
2018-12-21T11:47:51.441Z,78.33
2018-12-21T11:50:04.759Z,78.58
2018-12-21T11:52:15.598Z,77.25
2018-12-21T11:54:26.487Z,77.74
2018-12-21T11:56:37.372Z,77.35
2018-12-21T11:58:48.212Z,77.81
2018-12-21T12:00:59.074Z,77.71
2018-12-21T12:03:09.959Z,77.59
2018-12-21T12:05:20.843Z,77.29
2018-12-21T12:07:38.708Z,77.29
2018-12-21T12:09:49.559Z,78.27
2018-12-21T12:12:00.503Z,78.37
2018-12-21T12:14:11.359Z,78.00
2018-12-21T12:16:22.227Z,78.30
2018-12-21T12:18:33.079Z,77.63
2018-12-21T12:20:43.926Z,78.33
2018-12-21T12:22:54.793Z,78.26
2018-12-21T12:25:05.657Z,77.54
2018-12-21T12:27:16.508Z,77.59
2018-12-21T12:29:27.366Z,78.23
2018-12-21T12:31:38.249Z,78.38
2018-12-21T12:33:49.895Z,78.12
2018-12-21T12:36:00.776Z,78.02
2018-12-21T12:38:11.676Z,77.56
2018-12-21T12:40:22.700Z,78.47
2018-12-21T12:42:33.546Z,78.17
2018-12-21T12:44:44.455Z,78.33
2018-12-21T12:46:55.307Z,77.53
2018-12-21T12:49:06.279Z,77.54
2018-12-21T12:51:17.141Z,77.28
2018-12-21T12:53:27.976Z,78.58
2018-12-21T12:55:38.845Z,77.91
2018-12-21T12:57:49.669Z,77.93
2018-12-21T13:00:00.523Z,78.60
2018-12-21T13:02:11.393Z,78.09
2018-12-21T13:04:22.253Z,78.19
2018-12-21T13:06:33.108Z,78.70
2018-12-21T13:08:43.966Z,78.20
2018-12-21T13:10:54.829Z,78.12
2018-12-21T13:13:06.050Z,78.21
2018-12-21T13:15:16.886Z,78.09
2018-12-21T13:17:27.749Z,78.36
2018-12-21T13:19:38.577Z,78.56
2018-12-21T13:21:49.445Z,78.01
2018-12-21T13:24:00.314Z,78.62
2018-12-21T13:26:11.279Z,77.98
2018-12-21T13:28:22.248Z,78.68
2018-12-21T13:30:33.144Z,77.92
2018-12-21T13:32:44.021Z,78.80
2018-12-21T13:34:54.857Z,78.36
2018-12-21T13:37:05.727Z,78.69
2018-12-21T13:39:16.601Z,78.54
2018-12-21T13:41:27.564Z,79.03
2018-12-21T13:43:38.462Z,78.29
2018-12-21T13:45:49.385Z,79.06
2018-12-21T13:48:00.336Z,79.34
2018-12-21T13:50:11.171Z,78.94
2018-12-21T13:52:22.068Z,79.25
2018-12-21T13:54:32.921Z,79.29
2018-12-21T13:56:43.780Z,79.31
2018-12-21T13:58:54.649Z,79.71
2018-12-21T14:01:05.653Z,79.23
2018-12-21T14:03:16.534Z,79.95
2018-12-21T14:05:27.385Z,79.95
2018-12-21T14:07:38.237Z,79.46
2018-12-21T14:09:49.129Z,79.44
2018-12-21T14:12:00.003Z,79.22
2018-12-21T14:14:10.851Z,80.05
2018-12-21T14:16:21.736Z,80.27
2018-12-21T14:18:32.609Z,80.35
2018-12-21T14:20:43.442Z,79.55
2018-12-21T14:22:54.288Z,79.85
2018-12-21T14:25:05.296Z,79.97
2018-12-21T14:27:16.140Z,79.54
2018-12-21T14:29:27.012Z,79.70
2018-12-21T14:31:37.970Z,79.66
2018-12-21T14:33:48.827Z,79.78
2018-12-21T14:35:59.687Z,80.03
2018-12-21T14:38:10.542Z,80.41
2018-12-21T14:40:21.417Z,80.58
2018-12-21T14:42:32.241Z,80.74
2018-12-21T14:44:43.196Z,80.38
2018-12-21T14:46:54.055Z,80.96
2018-12-21T14:49:04.926Z,80.20
2018-12-21T14:51:15.928Z,81.12
2018-12-21T14:53:26.776Z,81.29
2018-12-21T14:55:37.860Z,80.63
2018-12-21T14:57:48.863Z,80.53
2018-12-21T14:59:59.763Z,80.64
2018-12-21T15:02:10.612Z,80.75
2018-12-21T15:04:21.604Z,81.50
2018-12-21T15:06:32.504Z,81.62
2018-12-21T15:08:43.384Z,81.37
2018-12-21T15:10:54.261Z,80.72
2018-12-21T15:13:05.129Z,81.16
2018-12-21T15:15:15.968Z,80.78
2018-12-21T15:17:26.869Z,81.37
2018-12-21T15:19:37.704Z,81.16
2018-12-21T15:21:48.556Z,81.71
2018-12-21T15:23:59.410Z,81.97
2018-12-21T15:26:10.386Z,81.21
2018-12-21T15:28:21.372Z,81.07
2018-12-21T15:30:32.261Z,80.88
2018-12-21T15:32:43.110Z,81.53
2018-12-21T15:34:53.950Z,80.95
2018-12-21T15:37:04.828Z,80.59
2018-12-21T15:39:15.657Z,80.05
2018-12-21T15:41:26.563Z,81.75
2018-12-21T15:43:37.416Z,80.94
2018-12-21T15:45:48.271Z,81.51
2018-12-21T15:47:59.113Z,81.18
2018-12-21T15:50:10.113Z,80.46
2018-12-21T15:52:20.988Z,79.95
2018-12-21T15:54:31.874Z,81.10
2018-12-21T15:56:42.759Z,80.91
2018-12-21T15:58:53.624Z,81.17
2018-12-21T16:01:04.565Z,80.65
2018-12-21T16:03:15.425Z,80.08
2018-12-21T16:05:26.281Z,80.28
2018-12-21T16:07:37.100Z,80.05
2018-12-21T16:09:47.985Z,79.08
2018-12-21T16:11:58.885Z,78.78
2018-12-21T16:14:09.894Z,78.88
2018-12-21T16:16:20.755Z,78.50
2018-12-21T16:18:31.594Z,79.02
2018-12-21T16:20:42.451Z,78.48
2018-12-21T16:22:53.301Z,77.91
2018-12-21T16:25:04.322Z,77.98
2018-12-21T16:27:15.325Z,78.04
2018-12-21T16:29:26.347Z,78.09
2018-12-21T16:31:37.309Z,77.55
2018-12-21T16:33:48.247Z,76.74
2018-12-21T16:35:59.124Z,77.49
2018-12-21T16:38:09.974Z,76.63
2018-12-21T16:40:20.876Z,76.97
2018-12-21T16:42:31.728Z,76.31
2018-12-21T16:44:42.627Z,76.23
2018-12-21T16:46:53.475Z,76.90
2018-12-21T16:49:04.324Z,76.24
2018-12-21T16:51:15.220Z,76.11
2018-12-21T16:53:26.090Z,75.88
2018-12-21T16:55:36.992Z,76.57
2018-12-21T16:57:47.840Z,76.47
2018-12-21T16:59:59.577Z,76.48
2018-12-21T17:02:10.427Z,76.16
2018-12-21T17:04:21.256Z,75.82
2018-12-21T17:06:32.137Z,76.47
2018-12-21T17:08:43.003Z,75.71
2018-12-21T17:10:54.424Z,75.35
2018-12-21T17:13:05.284Z,75.60
2018-12-21T17:15:16.217Z,75.78
2018-12-21T17:17:27.093Z,74.74
2018-12-21T17:19:37.968Z,74.59
2018-12-21T17:21:48.850Z,75.04
2018-12-21T17:23:59.753Z,75.05
2018-12-21T17:26:10.634Z,74.50
2018-12-21T17:28:21.532Z,74.34
2018-12-21T17:30:32.377Z,74.15
2018-12-21T17:32:43.260Z,74.95
2018-12-21T17:34:55.909Z,74.01
2018-12-21T17:37:07.020Z,73.83
2018-12-21T17:39:17.888Z,73.63
2018-12-21T17:41:28.735Z,73.61
2018-12-21T17:43:39.601Z,73.49
2018-12-21T17:45:50.458Z,74.41
2018-12-21T17:48:01.393Z,74.18
2018-12-21T17:50:12.257Z,74.36
2018-12-21T17:52:23.149Z,74.26
2018-12-21T17:54:33.996Z,73.45
2018-12-21T17:56:44.854Z,73.75
2018-12-21T17:58:55.737Z,74.07
2018-12-21T18:01:06.596Z,73.08
2018-12-21T18:03:20.312Z,73.98
2018-12-21T18:05:31.270Z,73.45
2018-12-21T18:07:42.165Z,73.69
2018-12-21T18:09:53.044Z,73.46
2018-12-21T18:12:03.965Z,73.81
2018-12-21T18:14:14.843Z,73.22
2018-12-21T18:16:25.717Z,73.74
2018-12-21T18:18:36.590Z,73.50
2018-12-21T18:20:48.180Z,73.53
2018-12-21T18:23:00.394Z,73.78
2018-12-21T18:25:11.613Z,72.95
2018-12-21T18:27:22.453Z,73.61
2018-12-21T18:29:33.316Z,73.25
2018-12-21T18:31:47.834Z,72.69
2018-12-21T18:33:59.071Z,73.55
2018-12-21T18:36:09.911Z,72.61
2018-12-21T18:38:20.896Z,72.74
2018-12-21T18:40:31.794Z,73.00
2018-12-21T18:42:42.679Z,73.42
2018-12-21T18:44:53.572Z,72.64
2018-12-21T18:47:04.479Z,73.20
2018-12-21T18:49:15.345Z,72.41
2018-12-21T18:51:26.188Z,73.17
2018-12-21T18:53:37.043Z,72.89
2018-12-21T18:55:48.056Z,73.21
2018-12-21T18:57:58.917Z,73.20
2018-12-21T19:00:11.883Z,73.31
2018-12-21T19:02:22.766Z,72.47
2018-12-21T19:04:33.640Z,73.05
2018-12-21T19:06:44.517Z,73.35
2018-12-21T19:08:55.366Z,72.95
2018-12-21T19:11:06.243Z,72.98
2018-12-21T19:13:17.115Z,72.89
2018-12-21T19:15:28.030Z,73.12
2018-12-21T19:17:38.954Z,73.22
2018-12-21T19:19:49.794Z,73.87
2018-12-21T19:22:00.673Z,73.45
2018-12-21T19:24:11.565Z,73.76
2018-12-21T19:26:22.433Z,72.99
2018-12-21T19:28:33.284Z,73.34
2018-12-21T19:30:44.141Z,72.91
2018-12-21T19:32:55.028Z,72.84
2018-12-21T19:35:06.741Z,74.11
2018-12-21T19:37:17.617Z,74.01
2018-12-21T19:39:28.467Z,73.51
2018-12-21T19:41:39.489Z,73.87
2018-12-21T19:43:50.414Z,74.40
2018-12-21T19:46:01.286Z,74.58
2018-12-21T19:48:12.177Z,73.78
2018-12-21T19:50:23.141Z,73.67
2018-12-21T19:52:34.048Z,74.44
2018-12-21T19:54:45.735Z,74.62
2018-12-21T19:57:04.473Z,74.06
2018-12-21T19:59:12.749Z,73.82
2018-12-21T20:01:23.633Z,73.45
2018-12-21T20:03:34.600Z,73.13
2018-12-21T20:05:45.584Z,73.67
2018-12-21T20:07:56.477Z,73.69
2018-12-21T20:10:08.902Z,74.00
2018-12-21T20:12:19.766Z,74.02
2018-12-21T20:14:30.656Z,73.25
2018-12-21T20:16:41.530Z,73.06
2018-12-21T20:18:52.399Z,73.16
2018-12-21T20:21:03.256Z,73.96
2018-12-21T20:23:14.113Z,74.03
2018-12-21T20:25:24.964Z,74.10
2018-12-21T20:27:35.799Z,73.44
2018-12-21T20:29:46.718Z,73.52
2018-12-21T20:31:57.567Z,73.75
2018-12-21T20:34:08.498Z,74.02
2018-12-21T20:36:19.500Z,73.92
2018-12-21T20:38:30.361Z,74.48
2018-12-21T20:40:41.221Z,74.58
2018-12-21T20:42:52.088Z,74.45
2018-12-21T20:45:05.716Z,74.48
2018-12-21T20:47:16.741Z,74.12
2018-12-21T20:49:27.607Z,74.16
2018-12-21T20:51:38.478Z,74.21
2018-12-21T20:53:49.355Z,74.99
2018-12-21T20:56:00.252Z,74.02
2018-12-21T20:58:12.791Z,74.85
2018-12-21T21:00:23.660Z,75.04
2018-12-21T21:02:34.522Z,74.35
2018-12-21T21:04:45.361Z,74.34
2018-12-21T21:06:56.385Z,74.68
2018-12-21T21:09:07.903Z,74.25
2018-12-21T21:11:24.280Z,74.91
2018-12-21T21:13:31.716Z,75.19
2018-12-21T21:15:42.596Z,75.18
2018-12-21T21:17:53.475Z,74.50
2018-12-21T21:20:08.061Z,75.49
2018-12-21T21:22:18.938Z,75.32
2018-12-21T21:24:29.793Z,75.36
2018-12-21T21:26:40.729Z,74.78
2018-12-21T21:28:51.601Z,75.27
2018-12-21T21:31:02.494Z,75.32
2018-12-21T21:33:13.353Z,74.78
2018-12-21T21:35:24.241Z,74.84
2018-12-21T21:37:35.087Z,74.74
2018-12-21T21:39:45.999Z,75.05
2018-12-21T21:41:56.921Z,74.82
2018-12-21T21:44:07.765Z,74.56
2018-12-21T21:46:18.641Z,74.92
2018-12-21T21:48:29.552Z,75.25
2018-12-21T21:50:40.427Z,74.67
2018-12-21T21:52:51.377Z,75.52
2018-12-21T21:55:03.012Z,74.86
2018-12-21T21:57:13.974Z,76.01
2018-12-21T21:59:24.834Z,75.40
2018-12-21T22:01:35.669Z,76.27
2018-12-21T22:03:47.073Z,78.00
2018-12-21T22:05:57.968Z,77.93
2018-12-21T22:08:08.912Z,79.01
2018-12-21T22:10:19.763Z,78.81
2018-12-21T22:12:30.773Z,78.97
2018-12-21T22:14:41.633Z,78.77
2018-12-21T22:16:52.521Z,79.11
2018-12-21T22:19:03.401Z,78.71
2018-12-21T22:21:14.401Z,79.31
2018-12-21T22:23:25.263Z,79.03
2018-12-21T22:25:36.185Z,78.31
2018-12-21T22:27:48.090Z,79.35
2018-12-21T22:29:59.376Z,78.81
2018-12-21T22:32:10.240Z,78.87
2018-12-21T22:34:21.125Z,78.88
2018-12-21T22:36:32.008Z,78.89
2018-12-21T22:38:42.870Z,78.63
2018-12-21T22:40:53.691Z,77.87
2018-12-21T22:43:04.548Z,77.79
2018-12-21T22:45:15.395Z,78.41
2018-12-21T22:47:26.261Z,78.35
2018-12-21T22:49:37.151Z,78.88
2018-12-21T22:51:47.992Z,78.02
2018-12-21T22:54:00.923Z,78.77
2018-12-21T22:56:11.758Z,78.43
2018-12-21T22:58:22.620Z,78.34
2018-12-21T23:00:34.710Z,78.50
2018-12-21T23:02:45.551Z,79.17
2018-12-21T23:04:56.563Z,78.88
2018-12-21T23:07:07.428Z,79.16
2018-12-21T23:09:18.360Z,79.47
2018-12-21T23:11:29.241Z,78.85
2018-12-21T23:13:40.079Z,78.78
2018-12-21T23:15:50.961Z,79.38
2018-12-21T23:18:01.877Z,79.27
2018-12-21T23:20:12.807Z,79.21
2018-12-21T23:22:23.728Z,79.27
2018-12-21T23:24:34.590Z,79.63
2018-12-21T23:26:45.452Z,79.05
2018-12-21T23:28:56.324Z,79.43
2018-12-21T23:31:07.189Z,79.12
2018-12-21T23:33:18.039Z,79.18
2018-12-21T23:35:28.913Z,79.08
2018-12-21T23:37:39.756Z,79.94
2018-12-21T23:39:50.605Z,79.69
2018-12-21T23:42:01.456Z,80.26
2018-12-21T23:44:12.292Z,79.51
2018-12-21T23:46:23.423Z,80.22
2018-12-21T23:48:34.357Z,79.87
2018-12-21T23:50:45.226Z,79.87
2018-12-21T23:52:56.073Z,80.00
2018-12-21T23:55:06.932Z,80.17
2018-12-21T23:57:17.764Z,80.84
2018-12-21T23:59:28.602Z,80.88
